African Grouse — C6CB4 — position and weather

sailwx.info

Track history (hours):
 
Tides and Currents Weather Stations Pressure Air Temp Water Temp Dewpoint Dewpoint Depression Visibility Wind Speed Wind Dir Waves Ship Positions

African Grouse

Last reported at 2017-Oct-03 14:00 UTC. Time now 2017-Oct-22 15:30 UTC.
Position S 35°53' E 175°25'.
Warning: this ship's position is 19 days out of date.

Length 183 m; draft 6.3 m.

Type: Cargo ship. MMSI: 311000424.

Date/timePositionNaut miles runAvg speedWind from/ knotsBaromVisibWave heightAir tempDewpointWater temp
2017-Oct-03 14:00S 35°53' E 175°25'1312.3
2017-Oct-03 12:57S 36°00' E 175°38'  
2017-Sep-25 05:35S 29°34' E 157°27'112.7
2017-Sep-25 05:30S 29°33' E 157°26'5512.9
2017-Sep-25 01:13S 28°59' E 156°37'312.5
2017-Sep-25 01:00S 28°57' E 156°34'9912.1
2017-Sep-24 16:46S 27°58' E 155°04'3813.8
2017-Sep-24 14:01S 27°33' E 154°31'016.0
2017-Sep-24 14:00S 27°33' E 154°31'1914.9
2017-Sep-24 12:43S 27°20' E 154°16'1215.2
2017-Sep-24 11:57S 27°12' E 154°06'715.7
2017-Sep-24 11:30S 27°07' E 153°60'815.5
2017-Sep-24 11:00S 27°02' E 153°53'2713.1
2017-Sep-24 08:57S 26°47' E 153°28'512.2
2017-Sep-24 08:30S 26°46' E 153°22'712.1
2017-Sep-24 07:58S 26°45' E 153°15'5 5.6
2017-Sep-24 07:03S 26°48' E 153°11'211.8
2017-Sep-24 06:55S 26°49' E 153°09'513.0
2017-Sep-24 06:30S 26°55' E 153°11'713.4
2017-Sep-24 06:00S 27°01' E 153°14'712.6
2017-Sep-24 05:26S 27°06' E 153°19'510.8
2017-Sep-24 04:59S 27°11' E 153°18'612.5
2017-Sep-24 04:29S 27°16' E 153°15'611.8
2017-Sep-24 03:59S 27°21' E 153°11'4 8.1
2017-Sep-24 03:31S 27°24' E 153°09'2 1.0
2017-Sep-24 01:35S 27°26' E 153°07'0 0.5
2017-Sep-24 01:29S 27°26' E 153°07'0 0.0
2017-Sep-23 21:59S 27°26' E 153°07'0 0.1
2017-Sep-23 21:29S 27°26' E 153°07'0 0.0
2017-Sep-23 20:59S 27°26' E 153°07'0 0.0
2017-Sep-23 20:23S 27°26' E 153°07'  
Track history (hours):
 
Tides and Currents Weather Stations Pressure Air Temp Water Temp Dewpoint Dewpoint Depression Visibility Wind Speed Wind Dir Waves Ship Positions

African Grouse

Last reported at 2017-Oct-03 14:00 UTC. Time now 2017-Oct-22 15:30 UTC.
Position S 35°53' E 175°25'.
Warning: this ship's position is 19 days out of date.

Length 183 m; draft 6.3 m.

Type: Cargo ship. MMSI: 311000424.

Date/timePositionNaut miles runAvg speedWind from/ knotsBaromVisibWave heightAir tempDewpointWater temp
2017-Oct-03 14:00S 35°53' E 175°25'1312.3
2017-Oct-03 12:57S 36°00' E 175°38'  
2017-Sep-25 05:35S 29°34' E 157°27'112.7
2017-Sep-25 05:30S 29°33' E 157°26'5512.9
2017-Sep-25 01:13S 28°59' E 156°37'312.5
2017-Sep-25 01:00S 28°57' E 156°34'9912.1
2017-Sep-24 16:46S 27°58' E 155°04'3813.8
2017-Sep-24 14:01S 27°33' E 154°31'016.0
2017-Sep-24 14:00S 27°33' E 154°31'1914.9
2017-Sep-24 12:43S 27°20' E 154°16'1215.2
2017-Sep-24 11:57S 27°12' E 154°06'715.7
2017-Sep-24 11:30S 27°07' E 153°60'815.5
2017-Sep-24 11:00S 27°02' E 153°53'2713.1
2017-Sep-24 08:57S 26°47' E 153°28'512.2
2017-Sep-24 08:30S 26°46' E 153°22'712.1
2017-Sep-24 07:58S 26°45' E 153°15'5 5.6
2017-Sep-24 07:03S 26°48' E 153°11'211.8
2017-Sep-24 06:55S 26°49' E 153°09'513.0
2017-Sep-24 06:30S 26°55' E 153°11'713.4
2017-Sep-24 06:00S 27°01' E 153°14'712.6
2017-Sep-24 05:26S 27°06' E 153°19'510.8
2017-Sep-24 04:59S 27°11' E 153°18'612.5
2017-Sep-24 04:29S 27°16' E 153°15'611.8
2017-Sep-24 03:59S 27°21' E 153°11'4 8.1
2017-Sep-24 03:31S 27°24' E 153°09'2 1.0
2017-Sep-24 01:35S 27°26' E 153°07'0 0.5
2017-Sep-24 01:29S 27°26' E 153°07'0 0.0
2017-Sep-23 21:59S 27°26' E 153°07'0 0.1
2017-Sep-23 21:29S 27°26' E 153°07'0 0.0
2017-Sep-23 20:59S 27°26' E 153°07'0 0.0
2017-Sep-23 20:23S 27°26' E 153°07'  

Dump ship's entire track history